Terminal Aerodrome Forecast
Issued by NWS Cleveland, OH

Home | Current Version | Previous Version | Graphics & Text | Print | Product List | Glossary On
Versions: 1 2 3 4 5 6 7 8 9 10 11 12 13 14 15 16 17 18 19 20 21 22 23 24 25 26 27
000
FTUS41 KCLE 281100
TAFCAK
TAF
KCAK 281139Z 2812/2912 29008KT P6SM VCSH OVC022
      TEMPO 2812/2815 4SM -SHRA BKN008 OVC015
     FM281500 32012G20KT P6SM BKN025
     FM281900 32015G22KT P6SM BKN035
     FM290000 32007KT P6SM SCT035
     FM290700 26005KT 5SM BR SCT030=

USA.gov is the U.S. government's official web portal to all federal, state and local government web resources and services.